createdAt,value
2018-05-02T00:00:23.929Z,93
2018-05-02T00:01:23.339Z,93
2018-05-02T00:02:23.552Z,93
2018-05-02T00:03:24.555Z,93
2018-05-02T00:04:23.287Z,93
2018-05-02T00:05:23.327Z,93
2018-05-02T00:06:23.279Z,93
2018-05-02T00:07:23.301Z,93
2018-05-02T00:08:23.979Z,93
2018-05-02T00:09:23.314Z,93
2018-05-02T00:12:04.374Z,93
2018-05-02T00:12:12.635Z,93
2018-05-02T00:13:14.109Z,93
2018-05-02T00:14:13.166Z,93
2018-05-02T00:15:12.629Z,93
2018-05-02T00:16:12.721Z,93
2018-05-02T00:17:12.725Z,93
2018-05-02T00:18:12.714Z,93
2018-05-02T00:19:14.004Z,93
2018-05-02T00:20:12.738Z,93
2018-05-02T00:22:25.804Z,93
2018-05-02T00:23:28.230Z,93
2018-05-02T00:24:25.701Z,93
2018-05-02T00:25:25.720Z,93
2018-05-02T00:26:27.024Z,93
2018-05-02T00:27:25.989Z,93
2018-05-02T00:28:27.020Z,93
2018-05-02T00:29:28.531Z,93
2018-05-02T00:30:26.268Z,93
2018-05-02T00:31:27.370Z,93
2018-05-02T00:32:27.077Z,93
2018-05-02T00:33:27.542Z,93
2018-05-02T00:34:27.746Z,93
2018-05-02T00:35:26.349Z,93
2018-05-02T00:36:26.845Z,93
2018-05-02T00:37:27.120Z,93
2018-05-02T00:38:27.128Z,93
2018-05-02T00:39:26.113Z,93
2018-05-02T00:40:25.780Z,93
2018-05-02T00:42:27.025Z,93
2018-05-02T00:43:27.930Z,93
2018-05-02T00:44:26.550Z,93
2018-05-02T00:45:26.354Z,93
2018-05-02T00:47:27.423Z,93
2018-05-02T00:48:26.680Z,93
2018-05-02T00:49:27.148Z,93
2018-05-02T00:50:26.699Z,93
2018-05-02T00:51:25.760Z,93
2018-05-02T00:54:07.433Z,93
2018-05-02T00:54:19.789Z,93
2018-05-02T00:55:20.939Z,93
2018-05-02T00:56:20.939Z,94
2018-05-02T00:57:21.157Z,94
2018-05-02T00:58:20.943Z,94
2018-05-02T00:59:21.488Z,94
2018-05-02T01:00:20.862Z,94
2018-05-02T01:01:20.886Z,94
2018-05-02T01:02:22.228Z,94
2018-05-02T01:03:22.260Z,94
2018-05-02T01:04:22.248Z,94
2018-05-02T01:05:21.519Z,94
2018-05-02T01:06:20.928Z,94
2018-05-02T01:07:21.237Z,94
2018-05-02T01:08:20.903Z,94
2018-05-02T01:09:21.232Z,94
2018-05-02T01:10:21.181Z,94
2018-05-02T01:11:20.945Z,94
2018-05-02T01:12:21.563Z,94
2018-05-02T01:13:21.602Z,94
2018-05-02T01:14:21.700Z,94
2018-05-02T01:15:21.978Z,94
2018-05-02T01:16:21.693Z,94
2018-05-02T01:17:21.206Z,94
2018-05-02T01:18:21.703Z,94
2018-05-02T01:19:20.922Z,94
2018-05-02T01:20:21.219Z,94
2018-05-02T01:21:20.888Z,94
2018-05-02T01:22:20.929Z,94
2018-05-02T01:23:24.489Z,94
2018-05-02T01:24:21.212Z,94
2018-05-02T01:25:20.873Z,94
2018-05-02T01:26:21.173Z,94
2018-05-02T01:27:20.907Z,94
2018-05-02T01:28:20.934Z,94
2018-05-02T01:29:21.532Z,94
2018-05-02T01:30:20.887Z,94
2018-05-02T01:31:21.174Z,94
2018-05-02T01:32:22.615Z,94
2018-05-02T01:33:21.642Z,94
2018-05-02T01:34:21.602Z,94
2018-05-02T01:35:21.025Z,94
2018-05-02T01:36:21.219Z,94
2018-05-02T01:37:20.933Z,94
2018-05-02T01:38:21.027Z,94
2018-05-02T01:39:20.978Z,94
2018-05-02T01:40:20.970Z,94
2018-05-02T01:41:20.981Z,94
2018-05-02T01:42:21.189Z,94
2018-05-02T01:43:21.045Z,94
2018-05-02T01:44:21.000Z,94
2018-05-02T01:45:21.002Z,94
2018-05-02T01:46:20.928Z,94
2018-05-02T01:47:20.964Z,94
2018-05-02T01:48:20.982Z,94
2018-05-02T01:49:20.965Z,94
2018-05-02T01:50:20.970Z,94
2018-05-02T01:51:21.283Z,94
2018-05-02T01:52:22.024Z,94
2018-05-02T01:53:20.978Z,94
2018-05-02T01:54:21.021Z,94
2018-05-02T01:55:21.512Z,94
2018-05-02T01:56:23.257Z,94
2018-05-02T01:57:22.057Z,94
2018-05-02T01:58:24.327Z,94
2018-05-02T01:59:24.074Z,94
2018-05-02T02:00:20.996Z,94
2018-05-02T02:01:21.015Z,94
2018-05-02T02:02:21.015Z,94
2018-05-02T02:03:20.966Z,94
2018-05-02T02:04:21.028Z,94
2018-05-02T02:05:20.982Z,94
2018-05-02T02:06:21.039Z,94
2018-05-02T02:07:20.975Z,94
2018-05-02T02:08:20.994Z,94
2018-05-02T02:09:21.229Z,94
2018-05-02T02:10:21.713Z,94
2018-05-02T02:11:20.976Z,94
2018-05-02T02:12:21.029Z,94
2018-05-02T02:13:21.017Z,94
2018-05-02T02:14:21.346Z,94
2018-05-02T02:15:20.983Z,94
2018-05-02T02:16:21.651Z,94
2018-05-02T02:17:22.834Z,94
2018-05-02T02:19:22.208Z,94
2018-05-02T02:26:52.582Z,94
2018-05-02T02:27:00.865Z,94
2018-05-02T02:28:00.784Z,95
2018-05-02T02:29:01.131Z,95
2018-05-02T02:30:00.876Z,95
2018-05-02T02:31:00.845Z,95
2018-05-02T02:32:01.167Z,95
2018-05-02T02:33:00.867Z,95
2018-05-02T02:34:00.986Z,95
2018-05-02T02:35:00.814Z,95
2018-05-02T02:36:00.828Z,95
2018-05-02T02:37:00.896Z,95
2018-05-02T02:38:00.837Z,95
2018-05-02T02:39:00.884Z,95
2018-05-02T02:40:00.940Z,95
2018-05-02T02:41:00.888Z,95
2018-05-02T02:42:00.914Z,95
2018-05-02T02:43:01.136Z,95
2018-05-02T02:44:11.249Z,95
2018-05-02T02:45:00.844Z,95
2018-05-02T02:46:00.876Z,95
2018-05-02T02:47:00.873Z,95
2018-05-02T02:48:01.155Z,95
2018-05-02T02:49:00.894Z,95
2018-05-02T02:50:01.150Z,95
2018-05-02T02:51:01.118Z,95
2018-05-02T02:52:00.896Z,95
2018-05-02T02:53:00.881Z,95
2018-05-02T02:54:01.470Z,95
2018-05-02T02:55:01.291Z,95
2018-05-02T02:56:00.837Z,95
2018-05-02T02:57:00.826Z,95
2018-05-02T02:58:00.887Z,95
2018-05-02T02:59:00.941Z,95
2018-05-02T03:00:00.905Z,95
2018-05-02T03:01:01.789Z,95
2018-05-02T03:02:02.621Z,95
2018-05-02T03:03:01.437Z,95
2018-05-02T03:04:17.199Z,95
2018-05-02T03:05:01.110Z,95
2018-05-02T03:06:00.890Z,95
2018-05-02T03:07:01.187Z,95
2018-05-02T03:08:01.873Z,95
2018-05-02T03:09:01.238Z,95
2018-05-02T03:10:00.953Z,95
2018-05-02T03:11:00.907Z,95
2018-05-02T03:12:01.550Z,95
2018-05-02T03:13:00.976Z,95
2018-05-02T03:14:00.987Z,95
2018-05-02T03:15:01.191Z,95
2018-05-02T03:16:01.208Z,95
2018-05-02T03:17:00.986Z,95
2018-05-02T03:18:01.961Z,95
2018-05-02T03:19:01.168Z,95
2018-05-02T03:20:05.122Z,95
2018-05-02T03:21:01.643Z,95
2018-05-02T03:22:02.894Z,95
2018-05-02T03:23:01.710Z,95
2018-05-02T03:25:02.543Z,95
2018-05-02T03:26:04.584Z,95
2018-05-02T03:27:00.938Z,95
2018-05-02T03:28:01.774Z,95
2018-05-02T03:29:02.835Z,95
2018-05-02T03:30:01.770Z,95
2018-05-02T03:31:02.377Z,95
2018-05-02T03:32:00.942Z,95
2018-05-02T03:33:03.440Z,95
2018-05-02T03:34:01.552Z,95
2018-05-02T03:35:00.959Z,95
2018-05-02T03:36:01.895Z,95
2018-05-02T03:37:01.919Z,95
2018-05-02T03:38:02.694Z,95
2018-05-02T03:39:01.847Z,95
2018-05-02T03:40:00.999Z,95
2018-05-02T03:41:01.256Z,95
2018-05-02T03:42:03.070Z,95
2018-05-02T03:43:02.801Z,95
2018-05-02T03:44:01.065Z,95
2018-05-02T03:45:01.644Z,95
2018-05-02T03:46:01.835Z,95
2018-05-02T03:47:01.067Z,95
2018-05-02T03:48:01.907Z,95
2018-05-02T03:49:03.066Z,95
2018-05-02T03:50:02.436Z,95
2018-05-02T03:51:00.973Z,95
2018-05-02T03:52:01.956Z,95
2018-05-02T03:53:01.061Z,95
2018-05-02T03:54:01.681Z,95
2018-05-02T03:55:02.411Z,95
2018-05-02T03:56:01.880Z,95
2018-05-02T03:57:01.673Z,95
2018-05-02T03:59:03.854Z,95
2018-05-02T04:00:01.307Z,95
2018-05-02T04:01:03.659Z,95
2018-05-02T04:02:02.767Z,95
2018-05-02T04:03:03.955Z,95
2018-05-02T04:04:01.275Z,95
2018-05-02T04:05:01.494Z,95
2018-05-02T04:06:01.719Z,95
2018-05-02T04:07:04.588Z,95
2018-05-02T04:09:03.747Z,95
2018-05-02T04:10:03.156Z,95
2018-05-02T04:11:01.989Z,95
2018-05-02T04:12:01.358Z,95
2018-05-02T04:13:01.015Z,95
2018-05-02T04:14:00.986Z,95
2018-05-02T04:15:00.968Z,95
2018-05-02T04:16:03.509Z,95
2018-05-02T04:17:03.531Z,95
2018-05-02T04:18:01.818Z,95
2018-05-02T04:19:11.699Z,95
2018-05-02T04:20:01.074Z,95
2018-05-02T04:21:01.545Z,95
2018-05-02T04:22:02.437Z,95
2018-05-02T04:23:03.964Z,95
2018-05-02T04:24:01.007Z,95
2018-05-02T04:25:03.332Z,95
2018-05-02T04:26:01.933Z,95
2018-05-02T04:27:02.160Z,95
2018-05-02T04:28:01.688Z,95
2018-05-02T04:29:01.725Z,95
2018-05-02T04:30:01.655Z,95
2018-05-02T04:31:01.987Z,95
2018-05-02T04:32:03.324Z,95
2018-05-02T04:33:03.953Z,95
2018-05-02T04:34:01.285Z,95
2018-05-02T04:35:01.314Z,95
2018-05-02T04:36:01.279Z,95
2018-05-02T04:37:11.625Z,95
2018-05-02T04:38:01.325Z,95
2018-05-02T04:39:01.630Z,95
2018-05-02T04:40:01.030Z,95
2018-05-02T04:41:01.760Z,95
2018-05-02T04:42:02.197Z,95
2018-05-02T04:43:01.380Z,95
2018-05-02T04:44:02.284Z,95
2018-05-02T04:45:01.652Z,95
2018-05-02T04:46:01.084Z,95
2018-05-02T04:47:01.137Z,95
2018-05-02T04:48:03.195Z,95
2018-05-02T04:49:01.040Z,95
2018-05-02T04:50:02.392Z,95
2018-05-02T04:51:01.068Z,95
2018-05-02T04:52:01.027Z,95
2018-05-02T04:53:01.088Z,95
2018-05-02T04:54:02.645Z,95
2018-05-02T04:55:04.502Z,95
2018-05-02T04:56:02.655Z,95
2018-05-02T04:57:06.024Z,95
2018-05-02T05:07:56.165Z,95
2018-05-02T05:08:55.119Z,95
2018-05-02T05:09:51.697Z,95
2018-05-02T05:10:51.829Z,95
2018-05-02T05:11:52.133Z,95
2018-05-02T05:12:54.511Z,95
2018-05-02T05:13:51.686Z,95
2018-05-02T05:14:51.969Z,95
2018-05-02T05:15:52.992Z,95
2018-05-02T05:16:52.122Z,95
2018-05-02T05:17:56.215Z,95
2018-05-02T05:18:56.651Z,95
2018-05-02T05:19:51.756Z,95
2018-05-02T05:20:51.817Z,95
2018-05-02T05:21:51.821Z,95
2018-05-02T05:22:51.742Z,95
2018-05-02T05:23:51.739Z,95
2018-05-02T05:24:52.995Z,95
2018-05-02T05:25:51.664Z,95
2018-05-02T05:26:51.702Z,95
2018-05-02T05:27:52.795Z,95
2018-05-02T05:28:51.650Z,95
2018-05-02T05:29:52.316Z,95
2018-05-02T05:30:51.983Z,95
2018-05-02T05:31:53.482Z,95
2018-05-02T05:32:52.127Z,95
2018-05-02T05:33:53.811Z,95
2018-05-02T05:34:51.841Z,95
2018-05-02T05:35:52.126Z,94
2018-05-02T05:36:53.935Z,94
2018-05-02T05:37:51.833Z,94
2018-05-02T05:38:52.018Z,94
2018-05-02T05:39:52.057Z,94
2018-05-02T05:40:51.772Z,94
2018-05-02T05:41:52.063Z,94
2018-05-02T05:42:51.783Z,94
2018-05-02T05:43:51.729Z,93
2018-05-02T05:44:51.798Z,93
2018-05-02T05:45:51.775Z,91
2018-05-02T05:47:01.756Z,91
2018-05-02T05:47:51.821Z,91
2018-05-02T05:48:51.773Z,90
2018-05-02T05:49:51.772Z,90
2018-05-02T05:50:51.793Z,89
2018-05-02T05:51:51.770Z,89
2018-05-02T05:52:52.527Z,89
2018-05-02T05:53:51.836Z,88
2018-05-02T05:54:51.888Z,88
2018-05-02T05:55:52.246Z,87
2018-05-02T05:56:51.784Z,87
2018-05-02T05:57:52.130Z,87
2018-05-02T05:58:52.402Z,88
2018-05-02T05:59:51.914Z,88
2018-05-02T06:00:51.856Z,88
2018-05-02T06:01:53.326Z,88
2018-05-02T06:02:51.797Z,88
2018-05-02T06:03:51.804Z,87
2018-05-02T06:05:08.367Z,87
2018-05-02T06:05:51.779Z,87
2018-05-02T06:06:52.096Z,87
2018-05-02T06:07:51.796Z,87
2018-05-02T06:08:51.832Z,87
2018-05-02T06:09:51.733Z,87
2018-05-02T06:10:52.097Z,87
2018-05-02T06:11:51.822Z,87
2018-05-02T06:12:51.816Z,87
2018-05-02T06:13:52.079Z,87
2018-05-02T06:14:52.093Z,87
2018-05-02T06:15:51.767Z,87
2018-05-02T06:16:51.841Z,87
2018-05-02T06:17:52.146Z,87
2018-05-02T06:18:52.834Z,87
2018-05-02T06:19:53.118Z,87
2018-05-02T06:20:51.879Z,87
2018-05-02T06:21:51.800Z,85
2018-05-02T06:22:51.836Z,85
2018-05-02T06:23:51.862Z,84
2018-05-02T06:24:51.835Z,84
2018-05-02T06:25:51.838Z,84
2018-05-02T06:26:51.961Z,82
2018-05-02T06:27:51.919Z,82
2018-05-02T06:28:51.857Z,82
2018-05-02T06:29:52.090Z,82
2018-05-02T06:30:51.943Z,82
2018-05-02T06:31:51.854Z,83
2018-05-02T06:32:54.027Z,83
2018-05-02T06:33:51.903Z,83
2018-05-02T06:34:51.937Z,83
2018-05-02T06:35:51.868Z,83
2018-05-02T06:36:51.903Z,83
2018-05-02T06:37:52.389Z,83
2018-05-02T06:38:52.173Z,83
2018-05-02T06:39:52.214Z,83
2018-05-02T06:40:51.915Z,83
2018-05-02T06:41:51.890Z,83
2018-05-02T06:42:52.180Z,83
2018-05-02T06:43:52.846Z,83
2018-05-02T06:44:51.885Z,83
2018-05-02T06:45:52.212Z,83
2018-05-02T06:46:51.949Z,83
2018-05-02T06:47:51.866Z,83
2018-05-02T06:48:52.288Z,83
2018-05-02T06:49:51.844Z,83
2018-05-02T06:50:53.624Z,83
2018-05-02T06:51:52.167Z,84
2018-05-02T06:52:51.894Z,84
2018-05-02T06:53:51.868Z,84
2018-05-02T06:54:52.202Z,84
2018-05-02T06:55:51.895Z,84
2018-05-02T06:56:52.207Z,84
2018-05-02T06:57:51.932Z,84
2018-05-02T06:58:53.396Z,84
2018-05-02T06:59:52.468Z,83
2018-05-02T07:00:53.165Z,83
2018-05-02T07:02:28.235Z,82
2018-05-02T07:02:52.267Z,82
2018-05-02T07:03:51.941Z,82
2018-05-02T07:04:51.849Z,81
2018-05-02T07:05:52.149Z,81
2018-05-02T07:06:51.813Z,81
2018-05-02T07:07:52.214Z,82
2018-05-02T07:08:51.853Z,82
2018-05-02T07:09:51.905Z,82
2018-05-02T07:10:51.936Z,82
2018-05-02T07:11:51.862Z,82
2018-05-02T07:14:04.654Z,81
2018-05-02T07:15:04.816Z,81
2018-05-02T07:16:04.624Z,81
2018-05-02T07:17:04.673Z,81
2018-05-02T07:18:05.925Z,79
2018-05-02T07:19:04.597Z,79
2018-05-02T07:20:04.926Z,80
2018-05-02T07:21:04.583Z,80
2018-05-02T07:22:04.618Z,80
2018-05-02T07:23:04.673Z,78
2018-05-02T07:24:07.087Z,78
2018-05-02T07:25:04.660Z,79
2018-05-02T07:26:04.953Z,79
2018-05-02T07:27:04.654Z,79
2018-05-02T07:28:04.698Z,79
2018-05-02T07:29:04.615Z,79
2018-05-02T07:30:04.695Z,79
2018-05-02T07:31:05.880Z,79
2018-05-02T07:32:04.932Z,79
2018-05-02T07:33:04.728Z,78
2018-05-02T07:34:05.196Z,78
2018-05-02T07:35:04.607Z,77
2018-05-02T07:36:04.616Z,77
2018-05-02T07:37:04.868Z,77
2018-05-02T07:38:04.620Z,77
2018-05-02T07:39:04.854Z,77
2018-05-02T07:40:04.921Z,77
2018-05-02T07:41:04.921Z,77
2018-05-02T07:42:04.725Z,77
2018-05-02T07:43:04.612Z,76
2018-05-02T07:44:06.872Z,76
2018-05-02T07:45:04.681Z,76
2018-05-02T07:46:04.698Z,76
2018-05-02T07:47:04.681Z,76
2018-05-02T07:48:04.697Z,76
2018-05-02T07:49:04.947Z,76
2018-05-02T07:50:04.628Z,76
2018-05-02T07:51:04.658Z,76
2018-05-02T07:52:04.780Z,76
2018-05-02T07:53:04.986Z,76
2018-05-02T07:54:05.256Z,76
2018-05-02T07:56:04.716Z,76
2018-05-02T07:57:04.773Z,76
2018-05-02T07:58:05.038Z,75
2018-05-02T07:59:05.043Z,75
2018-05-02T08:00:04.686Z,75
2018-05-02T08:01:04.718Z,74
2018-05-02T08:02:04.750Z,74
2018-05-02T08:03:04.986Z,73
2018-05-02T08:04:04.979Z,73
2018-05-02T08:05:04.754Z,73
2018-05-02T08:06:04.986Z,73
2018-05-02T08:07:04.691Z,73
2018-05-02T08:08:04.692Z,73
2018-05-02T08:09:04.996Z,73
2018-05-02T08:10:04.703Z,73
2018-05-02T08:11:05.108Z,73
2018-05-02T08:12:04.718Z,73
2018-05-02T08:13:04.674Z,72
2018-05-02T08:14:04.751Z,72
2018-05-02T08:15:04.711Z,72
2018-05-02T08:16:04.750Z,72
2018-05-02T08:17:04.749Z,72
2018-05-02T08:18:05.311Z,72
2018-05-02T08:19:04.719Z,71
2018-05-02T08:20:04.989Z,71
2018-05-02T08:21:05.025Z,70
2018-05-02T08:22:14.980Z,70
2018-05-02T08:23:04.760Z,70
2018-05-02T08:24:04.991Z,70
2018-05-02T08:25:04.769Z,70
2018-05-02T08:26:05.007Z,70
2018-05-02T08:27:04.750Z,70
2018-05-02T08:28:04.706Z,70
2018-05-02T08:29:04.776Z,69
2018-05-02T08:30:04.988Z,69
2018-05-02T08:31:04.787Z,68
2018-05-02T08:32:06.920Z,68
2018-05-02T08:33:04.758Z,68
2018-05-02T08:34:04.973Z,68
2018-05-02T08:35:04.797Z,68
2018-05-02T08:36:04.739Z,68
2018-05-02T08:37:04.779Z,68
2018-05-02T08:38:05.025Z,68
2018-05-02T08:39:05.057Z,70
2018-05-02T08:40:04.779Z,70
2018-05-02T08:41:04.824Z,70
2018-05-02T08:42:05.464Z,70
2018-05-02T08:43:05.019Z,70
2018-05-02T08:44:05.000Z,68
2018-05-02T08:45:04.860Z,68
2018-05-02T08:46:05.048Z,67
2018-05-02T08:47:04.783Z,67
2018-05-02T08:48:04.826Z,67
2018-05-02T08:49:04.807Z,67
2018-05-02T08:50:04.844Z,67
2018-05-02T08:51:04.754Z,67
2018-05-02T08:52:04.804Z,67
2018-05-02T08:53:04.778Z,67
2018-05-02T08:54:04.747Z,68
2018-05-02T08:55:05.124Z,68
2018-05-02T08:56:04.803Z,68
2018-05-02T08:57:04.761Z,68
2018-05-02T08:58:04.845Z,68
2018-05-02T08:59:05.094Z,68
2018-05-02T09:00:04.806Z,68
2018-05-02T09:01:05.361Z,68
2018-05-02T09:02:04.791Z,67
2018-05-02T09:03:04.768Z,67
2018-05-02T09:04:04.864Z,67
2018-05-02T09:05:04.835Z,67
2018-05-02T09:06:04.801Z,67
2018-05-02T09:07:05.155Z,67
2018-05-02T09:08:04.830Z,67
2018-05-02T09:09:05.123Z,67
2018-05-02T09:10:04.820Z,67
2018-05-02T09:11:04.836Z,67
2018-05-02T09:12:05.073Z,67
2018-05-02T09:13:04.834Z,67
2018-05-02T09:14:04.848Z,66
2018-05-02T09:15:04.885Z,66
2018-05-02T09:16:04.837Z,66
2018-05-02T09:17:04.812Z,66
2018-05-02T09:18:04.808Z,66
2018-05-02T09:19:04.813Z,66
2018-05-02T09:20:04.856Z,65
2018-05-02T09:21:04.830Z,65
2018-05-02T09:22:04.831Z,63
2018-05-02T09:23:04.812Z,63
2018-05-02T09:24:05.121Z,63
2018-05-02T09:25:05.079Z,63
2018-05-02T09:26:04.885Z,63
2018-05-02T09:27:04.801Z,63
2018-05-02T09:28:04.852Z,63
2018-05-02T09:29:05.529Z,63
2018-05-02T09:30:04.828Z,66
2018-05-02T09:31:04.917Z,66
2018-05-02T09:32:04.900Z,66
2018-05-02T09:33:04.913Z,66
2018-05-02T09:34:05.160Z,66
2018-05-02T09:35:04.827Z,63
2018-05-02T09:36:05.145Z,63
2018-05-02T09:37:05.103Z,63
2018-05-02T09:38:04.841Z,63
2018-05-02T09:39:05.033Z,63
2018-05-02T09:40:04.828Z,63
2018-05-02T09:41:05.147Z,63
2018-05-02T09:42:04.945Z,62
2018-05-02T09:43:04.841Z,62
2018-05-02T09:44:08.685Z,62
2018-05-02T09:45:05.131Z,62
2018-05-02T09:46:04.894Z,62
2018-05-02T09:47:06.771Z,61
2018-05-02T09:48:05.251Z,61
2018-05-02T09:49:06.317Z,61
2018-05-02T09:50:05.208Z,59
2018-05-02T09:51:05.099Z,59
2018-05-02T09:52:06.825Z,59
2018-05-02T09:53:06.146Z,60
2018-05-02T09:54:06.261Z,60
2018-05-02T09:56:05.776Z,61
2018-05-02T09:57:04.843Z,61
2018-05-02T09:58:04.909Z,63
2018-05-02T10:00:06.307Z,63
2018-05-02T10:02:04.968Z,63
2018-05-02T10:03:05.991Z,61
2018-05-02T10:04:04.968Z,61
2018-05-02T10:05:06.138Z,63
2018-05-02T10:06:06.003Z,63
2018-05-02T10:07:04.966Z,63
2018-05-02T10:09:04.945Z,63
2018-05-02T10:10:04.903Z,62
2018-05-02T10:11:04.923Z,62
2018-05-02T10:12:04.884Z,62
2018-05-02T10:13:05.712Z,62
2018-05-02T10:14:05.926Z,62
2018-05-02T10:15:06.121Z,62
2018-05-02T10:16:06.073Z,62
2018-05-02T10:17:06.018Z,62
2018-05-02T10:18:06.545Z,64
2018-05-02T10:19:07.053Z,64
2018-05-02T10:20:06.815Z,64
2018-05-02T10:21:07.864Z,61
2018-05-02T10:22:05.470Z,61
2018-05-02T10:23:04.923Z,62
2018-05-02T10:24:09.665Z,62
2018-05-02T10:25:07.454Z,62
2018-05-02T10:27:06.203Z,64
2018-05-02T10:28:07.457Z,62
2018-05-02T10:29:05.543Z,62
2018-05-02T10:31:08.211Z,63
2018-05-02T10:33:07.115Z,65
2018-05-02T10:35:08.771Z,65
2018-05-02T10:36:08.258Z,66
2018-05-02T10:37:07.577Z,66
2018-05-02T10:38:11.878Z,65
2018-05-02T10:39:07.928Z,65
2018-05-02T10:40:21.181Z,65
2018-05-02T10:41:17.031Z,62
2018-05-02T10:42:06.373Z,62
2018-05-02T10:43:05.321Z,62
2018-05-02T10:46:05.073Z,62
2018-05-02T10:47:07.964Z,62
2018-05-02T10:48:05.475Z,64
2018-05-02T10:49:06.106Z,64
2018-05-02T10:50:05.005Z,64
2018-05-02T10:54:09.852Z,61
2018-05-02T10:55:07.707Z,61
2018-05-02T10:56:13.768Z,62
2018-05-02T10:57:05.329Z,62
2018-05-02T10:58:05.744Z,62
2018-05-02T10:59:06.251Z,64
2018-05-02T11:00:05.239Z,64
2018-05-02T11:01:08.261Z,61
2018-05-02T11:02:15.598Z,61
2018-05-02T11:03:22.451Z,61
2018-05-02T11:04:05.488Z,60
2018-05-02T11:05:05.231Z,60
2018-05-02T11:06:05.341Z,59
2018-05-02T11:07:06.026Z,59
2018-05-02T11:08:05.245Z,59
2018-05-02T11:09:05.231Z,60
2018-05-02T11:10:05.327Z,60
2018-05-02T11:11:05.620Z,62
2018-05-02T11:12:04.999Z,62
2018-05-02T11:13:07.836Z,62
2018-05-02T11:14:07.166Z,61
2018-05-02T11:15:07.881Z,61
2018-05-02T11:16:12.422Z,61
2018-05-02T11:17:09.349Z,61
2018-05-02T11:18:05.193Z,61
2018-05-02T11:19:05.065Z,59
2018-05-02T11:20:05.399Z,59
2018-05-02T11:21:05.780Z,59
2018-05-02T11:22:05.296Z,60
2018-05-02T11:23:05.625Z,60
2018-05-02T11:24:06.464Z,60
2018-05-02T11:25:15.852Z,60
2018-05-02T11:26:08.363Z,60
2018-05-02T11:27:05.830Z,60
2018-05-02T11:28:08.500Z,60
2018-05-02T11:29:07.029Z,61
2018-05-02T11:30:06.630Z,61
2018-05-02T11:31:05.063Z,61
2018-05-02T11:32:05.150Z,60
2018-05-02T11:33:07.382Z,60
2018-05-02T11:36:12.116Z,60
2018-05-02T11:37:07.384Z,60
2018-05-02T11:38:05.036Z,60
2018-05-02T11:39:05.175Z,61
2018-05-02T11:40:08.242Z,61
2018-05-02T11:41:05.148Z,61
2018-05-02T11:42:07.504Z,62
2018-05-02T11:44:06.041Z,62
2018-05-02T11:45:06.205Z,62
2018-05-02T11:46:06.075Z,62
2018-05-02T11:47:05.310Z,63
2018-05-02T11:48:05.790Z,63
2018-05-02T11:49:06.338Z,62
2018-05-02T11:50:08.253Z,62
2018-05-02T11:51:08.802Z,62
2018-05-02T11:52:06.561Z,62
2018-05-02T11:54:05.827Z,62
2018-05-02T11:55:11.363Z,62
2018-05-02T11:56:05.563Z,62
2018-05-02T11:58:05.240Z,62
2018-05-02T11:59:05.215Z,62
2018-05-02T12:00:05.540Z,60
2018-05-02T12:01:05.434Z,60
2018-05-02T12:02:06.011Z,61
2018-05-02T12:03:05.407Z,61
2018-05-02T12:04:07.912Z,61
2018-05-02T12:05:05.735Z,59
2018-05-02T12:06:08.143Z,59
2018-05-02T12:07:05.729Z,61
2018-05-02T12:08:05.675Z,61
2018-05-02T12:09:08.062Z,61
2018-05-02T12:11:06.152Z,61
2018-05-02T12:12:05.726Z,59
2018-05-02T12:13:10.837Z,59
2018-05-02T12:14:05.132Z,59
2018-05-02T12:15:07.289Z,59
2018-05-02T12:16:06.082Z,59
2018-05-02T12:18:07.237Z,61
2018-05-02T12:19:05.201Z,61
2018-05-02T12:20:07.850Z,60
2018-05-02T12:21:05.903Z,60
2018-05-02T12:22:05.558Z,60
2018-05-02T12:23:05.320Z,61
2018-05-02T12:24:05.525Z,61
2018-05-02T12:25:05.700Z,61
2018-05-02T12:26:05.247Z,61
2018-05-02T12:27:05.301Z,61
2018-05-02T12:28:05.241Z,60
2018-05-02T12:29:05.807Z,60
2018-05-02T12:30:05.809Z,60
2018-05-02T12:31:05.223Z,60
2018-05-02T12:32:05.563Z,60
2018-05-02T12:33:05.660Z,61
2018-05-02T12:34:05.289Z,61
2018-05-02T12:35:05.267Z,61
2018-05-02T12:36:05.889Z,61
2018-05-02T12:37:05.319Z,61
2018-05-02T12:38:05.266Z,60
2018-05-02T12:39:05.376Z,60
2018-05-02T12:40:05.283Z,59
2018-05-02T12:41:05.624Z,59
2018-05-02T12:42:05.297Z,59
2018-05-02T12:43:05.603Z,60
2018-05-02T12:44:05.675Z,60
2018-05-02T12:45:05.383Z,62
2018-05-02T12:46:05.339Z,62
2018-05-02T12:47:09.115Z,62
2018-05-02T12:48:06.020Z,61
2018-05-02T12:49:07.573Z,61
2018-05-02T12:50:05.324Z,61
2018-05-02T12:51:06.178Z,61
2018-05-02T12:52:05.313Z,61
2018-05-02T12:53:06.071Z,61
2018-05-02T12:54:06.596Z,61
2018-05-02T12:55:05.393Z,61
2018-05-02T12:56:05.559Z,61
2018-05-02T12:57:05.633Z,61
2018-05-02T12:58:08.431Z,60
2018-05-02T12:59:05.382Z,60
2018-05-02T13:00:05.682Z,60
2018-05-02T13:01:05.942Z,60
2018-05-02T13:02:05.966Z,60
2018-05-02T13:03:05.671Z,60
2018-05-02T13:04:05.452Z,60
2018-05-02T13:05:05.410Z,60
2018-05-02T13:06:05.450Z,60
2018-05-02T13:07:06.153Z,60
2018-05-02T13:08:05.547Z,60
2018-05-02T13:09:06.138Z,60
2018-05-02T13:10:05.761Z,60
2018-05-02T13:11:06.110Z,61
2018-05-02T13:12:05.349Z,61
2018-05-02T13:13:05.399Z,61
2018-05-02T13:14:05.956Z,61
2018-05-02T13:15:06.545Z,61
2018-05-02T13:16:05.329Z,61
2018-05-02T13:17:06.211Z,61
2018-05-02T13:18:06.528Z,61
2018-05-02T13:19:08.625Z,61
2018-05-02T13:20:06.078Z,61
2018-05-02T13:21:07.006Z,61
2018-05-02T13:22:06.301Z,61
2018-05-02T13:23:05.883Z,61
2018-05-02T13:24:05.881Z,60
2018-05-02T13:25:06.650Z,60
2018-05-02T13:26:07.696Z,60
2018-05-02T13:27:06.889Z,60
2018-05-02T13:28:06.381Z,60
2018-05-02T13:29:05.361Z,61
2018-05-02T13:30:05.435Z,61
2018-05-02T13:31:06.107Z,61
2018-05-02T13:32:05.364Z,61
2018-05-02T13:33:05.563Z,61
2018-05-02T13:34:06.179Z,60
2018-05-02T13:35:16.141Z,60
2018-05-02T13:36:05.987Z,60
2018-05-02T13:37:06.480Z,60
2018-05-02T13:38:06.734Z,60
2018-05-02T13:40:05.402Z,60
2018-05-02T13:41:05.522Z,60
2018-05-02T13:42:05.391Z,60
2018-05-02T13:43:06.267Z,60
2018-05-02T13:44:06.054Z,59
2018-05-02T13:45:05.416Z,59
2018-05-02T13:46:05.453Z,60
2018-05-02T13:47:05.818Z,60
2018-05-02T13:48:05.400Z,60
2018-05-02T13:49:05.319Z,61
2018-05-02T13:50:05.456Z,61
2018-05-02T13:52:08.104Z,61
2018-05-02T13:53:05.363Z,61
2018-05-02T13:54:05.560Z,61
2018-05-02T13:55:05.493Z,61
2018-05-02T13:56:07.224Z,61
2018-05-02T13:57:06.475Z,61
2018-05-02T13:58:05.954Z,61
2018-05-02T13:59:05.953Z,60
2018-05-02T14:00:08.007Z,60
2018-05-02T14:01:06.684Z,60
2018-05-02T14:02:06.402Z,60
2018-05-02T14:03:05.538Z,60
2018-05-02T14:04:05.875Z,61
2018-05-02T14:05:05.845Z,61
2018-05-02T14:06:05.457Z,61
2018-05-02T14:07:05.961Z,61
2018-05-02T14:08:06.096Z,61
2018-05-02T14:09:08.102Z,61
2018-05-02T14:10:05.694Z,61
2018-05-02T14:11:05.531Z,61
2018-05-02T14:12:05.436Z,61
2018-05-02T14:13:05.712Z,61
2018-05-02T14:14:06.132Z,61
2018-05-02T14:15:05.433Z,61
2018-05-02T14:16:05.554Z,61
2018-05-02T14:17:06.047Z,61
2018-05-02T14:18:05.486Z,61
2018-05-02T14:19:05.718Z,60
2018-05-02T14:20:05.472Z,60
2018-05-02T14:21:06.093Z,60
2018-05-02T14:22:08.792Z,61
2018-05-02T14:23:06.431Z,61
2018-05-02T14:24:05.464Z,61
2018-05-02T14:25:06.050Z,61
2018-05-02T14:26:05.419Z,61
2018-05-02T14:27:07.513Z,61
2018-05-02T14:29:09.215Z,61
2018-05-02T14:29:58.693Z,61
2018-05-02T14:30:54.289Z,61
2018-05-02T14:33:20.582Z,59
2018-05-02T14:34:47.270Z,59
2018-05-02T14:36:36.190Z,59
2018-05-02T14:36:44.826Z,59
2018-05-02T14:37:44.853Z,60
2018-05-02T14:38:44.745Z,60
2018-05-02T14:39:44.903Z,61
2018-05-02T14:40:45.084Z,61
2018-05-02T14:41:44.890Z,61
2018-05-02T14:42:44.878Z,60
2018-05-02T14:43:44.890Z,60
2018-05-02T14:44:44.837Z,60
2018-05-02T14:45:45.026Z,60
2018-05-02T14:46:45.017Z,60
2018-05-02T14:47:45.077Z,59
2018-05-02T14:48:44.925Z,59
2018-05-02T14:49:45.166Z,58
2018-05-02T14:50:45.035Z,58
2018-05-02T14:51:44.989Z,58
2018-05-02T14:52:44.681Z,58
2018-05-02T14:53:50.628Z,58
2018-05-02T14:55:58.663Z,58
2018-05-02T14:57:45.882Z,58
2018-05-02T14:58:52.937Z,58
2018-05-02T14:59:50.441Z,58
2018-05-02T15:00:45.067Z,58
2018-05-02T15:02:50.438Z,58
2018-05-02T15:03:47.978Z,58
2018-05-02T15:04:49.246Z,58
2018-05-02T15:05:44.674Z,58
2018-05-02T15:06:45.306Z,58
2018-05-02T15:07:54.966Z,59
2018-05-02T15:08:44.772Z,59
2018-05-02T15:09:44.816Z,59